Погода Бирчана 2 недели

Могилёвская область, Белоруссия

24 мая-06 июня
  • 24мая
    Сегодня
    +10°
    +24°
    Облачно с прояснениями
    ВремяПогодаТемператураВлажностьДавлениеВетер, м/сВероятность осадков
    00:00Ясно и безоблачно+15°C54 %756 мм1.6 м/с2 %
    03:00Ясно и безоблачно+13°C57 %757 мм1.6 м/с2 %
    06:00Практически безоблачно+12°C58 %757 мм1.8 м/с2 %
    09:00Ясно и безоблачно+16°C51 %758 мм2.7 м/с2 %
    12:00Небольшая облачность+21°C46 %758 мм3.1 м/с2 %
    15:00Облачно с прояснениями+24°C43 %758 мм3.9 м/с2 %
    18:00Облачно с прояснениями+23°C43 %757 мм3.6 м/с2 %
    21:00Облачно с прояснениями+17°C55 %758 мм1.1 м/с2 %
  • 25мая
    Суббота
    +9°
    +25°
    Ясно и безоблачно
    ВремяПогодаТемператураВлажностьДавлениеВетер, м/сВероятность осадков
    00:00Облачно с прояснениями+13°C59 %758 мм1.3 м/с2 %
    03:00Ясно и безоблачно+11°C63 %758 мм1.2 м/с2 %
    06:00Ясно и безоблачно+11°C67 %758 мм1.3 м/с2 %
    09:00Практически безоблачно+17°C55 %758 мм2.2 м/с2 %
    12:00Ясно и безоблачно+22°C43 %758 мм2.7 м/с2 %
    15:00Ясно и безоблачно+25°C34 %757 мм3.4 м/с1 %
    18:00Ясно и безоблачно+24°C34 %756 мм3.3 м/с2 %
    21:00Ясно и безоблачно+18°C52 %756 мм0.5 м/с2 %
  • 26мая
    Воскресенье
    +10°
    +25°
    Небольшая облачность
    ВремяПогодаТемператураВлажностьДавлениеВетер, м/сВероятность осадков
    00:00Ясно и безоблачно+13°C63 %757 мм0.6 м/с2 %
    03:00Ясно и безоблачно+10°C71 %756 мм0.4 м/с2 %
    06:00Облачно с прояснениями+10°C74 %756 мм0.3 м/с2 %
    09:00Облачно с прояснениями+18°C55 %757 мм0.9 м/с2 %
    12:00Облачно с прояснениями+23°C32 %757 мм2.5 м/с2 %
    15:00Небольшая облачность+25°C32 %757 мм2.9 м/с2 %
    18:00Ясно и безоблачно+24°C35 %756 мм2.8 м/с2 %
    21:00Ясно и безоблачно+18°C63 %755 мм0.0 м/с2 %
  • 27мая
    Понедельник
    +12°
    +27°
    Ясно и безоблачно
    ВремяПогодаТемператураВлажностьДавлениеВетер, м/сВероятность осадков
    00:00Ясно и безоблачно+14°C68 %756 мм0.1 м/с2 %
    03:00Ясно и безоблачно+12°C83 %756 мм0.2 м/с2 %
    06:00Ясно и безоблачно+12°C80 %756 мм0.4 м/с2 %
    09:00Ясно и безоблачно+20°C54 %756 мм0.9 м/с2 %
    12:00Практически безоблачно+25°C37 %757 мм2.5 м/с4 %
    15:00Ясно и безоблачно+26°C37 %756 мм3.2 м/с28 %
    18:00Ясно и безоблачно+26°C39 %756 мм2.6 м/с38 %
    21:00Ясно и безоблачно+20°C54 %755 мм0.3 м/с14 %
  • 28мая
    Вторник
    +13°
    +27°
    Ясно и безоблачно
    ВремяПогодаТемператураВлажностьДавлениеВетер, м/сВероятность осадков
    00:00Ясно и безоблачно+17°C70 %756 мм0.8 м/с2 %
    03:00Ясно и безоблачно+14°C84 %756 мм0.6 м/с2 %
    06:00Ясно и безоблачно+14°C85 %756 мм0.8 м/с2 %
    09:00Ясно и безоблачно+19°C58 %756 мм1.6 м/с2 %
    12:00Ясно и безоблачно+24°C45 %756 мм2.8 м/с2 %
    15:00Ясно и безоблачно+26°C40 %755 мм3.1 м/с5 %
    18:00Ясно и безоблачно+25°C41 %754 мм2.8 м/с8 %
    21:00Ясно и безоблачно+20°C58 %754 мм0.4 м/с3 %
Мы используем cookies
Соглашаюсь